createdAt,value
2019-05-10T00:01:10.590Z,47.58
2019-05-10T00:03:59.434Z,47.66
2019-05-10T00:06:48.572Z,47.71
2019-05-10T00:09:18.882Z,47.87
2019-05-10T00:12:15.318Z,47.87
2019-05-10T00:14:52.059Z,47.90
2019-05-10T00:17:23.902Z,48.02
2019-05-10T00:19:55.137Z,48.07
2019-05-10T00:22:26.452Z,48.27
2019-05-10T00:25:04.432Z,48.28
2019-05-10T00:27:30.820Z,48.49
2019-05-10T00:30:02.127Z,48.47
2019-05-10T00:32:34.817Z,48.50
2019-05-10T00:35:06.582Z,48.50
2019-05-10T00:37:37.867Z,48.53
2019-05-10T00:40:09.260Z,48.60
2019-05-10T00:42:40.669Z,48.61
2019-05-10T00:45:12.023Z,48.70
2019-05-10T00:47:43.299Z,48.88
2019-05-10T00:50:14.663Z,48.87
2019-05-10T00:52:45.967Z,48.89
2019-05-10T00:55:19.251Z,49.05
2019-05-10T00:57:50.433Z,49.25
2019-05-10T01:00:22.215Z,49.32
2019-05-10T01:02:53.422Z,49.29
2019-05-10T01:05:24.861Z,49.42
2019-05-10T01:07:56.221Z,49.44
2019-05-10T01:10:27.533Z,49.46
2019-05-10T01:12:58.903Z,49.56
2019-05-10T01:15:30.133Z,49.62
2019-05-10T01:18:01.510Z,49.68
2019-05-10T01:20:32.791Z,49.71
2019-05-10T01:23:04.046Z,49.74
2019-05-10T01:25:36.005Z,49.71
2019-05-10T01:28:07.393Z,49.67
2019-05-10T01:30:38.741Z,49.79
2019-05-10T01:33:10.057Z,49.85
2019-05-10T01:35:41.351Z,49.85
2019-05-10T01:38:12.561Z,49.88
2019-05-10T01:40:43.845Z,49.87
2019-05-10T01:43:15.078Z,49.80
2019-05-10T01:45:46.344Z,49.90
2019-05-10T01:48:17.584Z,49.92
2019-05-10T01:50:48.911Z,49.95
2019-05-10T01:53:20.212Z,50.03
2019-05-10T01:55:52.932Z,49.98
2019-05-10T01:58:25.593Z,50.00
2019-05-10T02:00:56.880Z,49.97
2019-05-10T02:03:28.198Z,50.01
2019-05-10T02:06:00.410Z,50.09
2019-05-10T02:08:31.676Z,50.07
2019-05-10T02:11:03.318Z,50.02
2019-05-10T02:13:34.630Z,50.04
2019-05-10T02:16:05.979Z,50.05
2019-05-10T02:18:37.357Z,50.03
2019-05-10T02:21:08.625Z,50.02
2019-05-10T02:23:39.851Z,50.08
2019-05-10T02:26:11.179Z,50.12
2019-05-10T02:28:42.484Z,50.40
2019-05-10T02:31:13.756Z,50.33
2019-05-10T02:33:45.074Z,50.45
2019-05-10T02:36:16.376Z,50.57
2019-05-10T02:38:47.747Z,50.52
2019-05-10T02:41:18.991Z,50.62
2019-05-10T02:43:50.279Z,50.82
2019-05-10T02:46:21.613Z,50.77
2019-05-10T02:48:53.040Z,50.84
2019-05-10T02:51:24.297Z,50.87
2019-05-10T02:53:55.493Z,51.02
2019-05-10T02:56:30.855Z,51.04
2019-05-10T02:59:00.213Z,51.21
2019-05-10T03:01:31.738Z,51.09
2019-05-10T03:04:03.104Z,51.31
2019-05-10T03:06:38.343Z,51.54
2019-05-10T03:09:09.898Z,51.47
2019-05-10T03:11:47.464Z,51.60
2019-05-10T03:14:19.826Z,51.99
2019-05-10T03:16:52.334Z,52.05
2019-05-10T03:19:24.003Z,51.94
2019-05-10T03:22:06.168Z,51.97
2019-05-10T03:24:38.506Z,51.94
2019-05-10T03:27:09.826Z,52.07
2019-05-10T03:29:41.267Z,52.14
2019-05-10T03:32:12.752Z,52.18
2019-05-10T03:34:44.001Z,52.13
2019-05-10T03:37:15.334Z,51.93
2019-05-10T03:39:46.555Z,52.06
2019-05-10T03:42:18.958Z,52.13
2019-05-10T03:44:50.177Z,52.27
2019-05-10T03:47:21.404Z,52.22
2019-05-10T03:49:52.672Z,52.26
2019-05-10T03:52:23.909Z,52.37
2019-05-10T03:54:55.185Z,52.17
2019-05-10T03:57:26.442Z,52.36
2019-05-10T03:59:57.792Z,52.42
2019-05-10T04:02:29.057Z,52.32
2019-05-10T04:05:00.360Z,52.48
2019-05-10T04:07:32.699Z,52.58
2019-05-10T04:10:03.960Z,52.62
2019-05-10T04:12:35.690Z,52.51
2019-05-10T04:15:08.227Z,52.85
2019-05-10T04:17:39.504Z,52.81
2019-05-10T04:20:10.940Z,52.53
2019-05-10T04:22:42.232Z,52.65
2019-05-10T04:25:13.596Z,52.58
2019-05-10T04:27:44.934Z,52.58
2019-05-10T04:30:16.574Z,53.11
2019-05-10T04:32:47.845Z,53.10
2019-05-10T04:35:19.175Z,53.23
2019-05-10T04:37:50.661Z,53.19
2019-05-10T04:40:21.992Z,53.25
2019-05-10T04:42:53.279Z,53.39
2019-05-10T04:45:24.715Z,53.33
2019-05-10T04:47:55.999Z,53.41
2019-05-10T04:50:27.258Z,53.50
2019-05-10T04:52:58.518Z,53.67
2019-05-10T04:55:29.853Z,53.74
2019-05-10T04:58:01.164Z,53.78
2019-05-10T05:00:32.462Z,53.60
2019-05-10T05:03:05.370Z,53.90
2019-05-10T05:05:36.672Z,53.90
2019-05-10T05:08:07.938Z,53.95
2019-05-10T05:10:39.286Z,53.87
2019-05-10T05:13:10.549Z,53.83
2019-05-10T05:15:41.857Z,53.86
2019-05-10T05:18:13.219Z,53.82
2019-05-10T05:20:44.511Z,53.85
2019-05-10T05:23:15.804Z,53.80
2019-05-10T05:25:47.071Z,53.99
2019-05-10T05:28:23.040Z,53.77
2019-05-10T05:30:51.343Z,53.93
2019-05-10T05:33:22.676Z,53.85
2019-05-10T05:35:53.975Z,53.91
2019-05-10T05:38:25.279Z,54.03
2019-05-10T05:40:56.577Z,54.21
2019-05-10T05:43:27.893Z,54.10
2019-05-10T05:45:59.125Z,53.86
2019-05-10T05:48:40.115Z,54.17
2019-05-10T05:51:03.424Z,54.05
2019-05-10T05:53:35.867Z,54.21
2019-05-10T05:56:12.635Z,54.23
2019-05-10T05:58:44.782Z,54.19
2019-05-10T06:01:24.935Z,54.18
2019-05-10T06:03:46.825Z,54.19
2019-05-10T06:06:21.968Z,54.22
2019-05-10T06:08:54.590Z,54.13
2019-05-10T06:11:29.654Z,53.97
2019-05-10T06:14:03.711Z,53.88
2019-05-10T06:16:31.263Z,53.98
2019-05-10T06:19:02.561Z,54.18
2019-05-10T06:21:33.847Z,54.02
2019-05-10T06:24:07.558Z,54.13
2019-05-10T06:26:38.059Z,54.18
2019-05-10T06:29:16.139Z,54.16
2019-05-10T06:31:42.297Z,54.26
2019-05-10T06:34:13.618Z,54.22
2019-05-10T06:36:45.087Z,54.12
2019-05-10T06:39:16.377Z,54.17
2019-05-10T06:41:50.243Z,54.19
2019-05-10T06:44:24.893Z,54.21
2019-05-10T06:46:53.885Z,54.14
2019-05-10T06:49:25.175Z,54.02
2019-05-10T06:51:56.482Z,54.00
2019-05-10T06:54:27.785Z,53.84
2019-05-10T06:56:59.192Z,53.86
2019-05-10T06:59:30.570Z,53.71
2019-05-10T07:02:01.889Z,53.79
2019-05-10T07:04:37.922Z,53.84
2019-05-10T07:07:09.704Z,53.79
2019-05-10T07:10:01.418Z,53.80
2019-05-10T07:12:15.321Z,53.74
2019-05-10T07:14:46.410Z,53.43
2019-05-10T07:17:18.033Z,53.31
2019-05-10T07:19:53.578Z,53.20
2019-05-10T07:22:27.114Z,53.26
2019-05-10T07:24:57.154Z,52.95
2019-05-10T07:27:29.154Z,52.84
2019-05-10T07:30:00.470Z,52.81
2019-05-10T07:32:31.735Z,52.66
2019-05-10T07:35:03.193Z,52.57
2019-05-10T07:37:34.501Z,52.50
2019-05-10T07:40:06.391Z,52.25
2019-05-10T07:42:39.649Z,52.20
2019-05-10T07:45:10.910Z,52.06
2019-05-10T07:47:42.295Z,52.00
2019-05-10T07:50:13.678Z,51.84
2019-05-10T07:52:45.668Z,51.70
2019-05-10T07:55:28.086Z,51.58
2019-05-10T07:57:50.325Z,51.43
2019-05-10T08:00:25.326Z,51.32
2019-05-10T08:03:06.390Z,51.23
2019-05-10T08:05:29.456Z,51.21
2019-05-10T08:08:00.947Z,51.20
2019-05-10T08:10:32.266Z,51.07
2019-05-10T08:13:03.775Z,50.95
2019-05-10T08:15:35.301Z,50.78
2019-05-10T08:18:09.613Z,50.76
2019-05-10T08:20:49.335Z,50.68
2019-05-10T08:23:17.850Z,50.61
2019-05-10T08:25:47.195Z,50.48
2019-05-10T08:28:18.636Z,50.39
2019-05-10T08:30:53.467Z,50.35
2019-05-10T08:33:23.020Z,50.27
2019-05-10T08:36:00.511Z,50.16
2019-05-10T08:38:28.203Z,50.04
2019-05-10T08:40:59.508Z,49.94
2019-05-10T08:43:38.872Z,49.60
2019-05-10T08:46:03.799Z,49.58
2019-05-10T08:48:38.203Z,49.52
2019-05-10T08:51:08.066Z,49.24
2019-05-10T08:53:41.891Z,49.16
2019-05-10T08:56:13.693Z,49.04
2019-05-10T08:58:45.227Z,48.82
2019-05-10T09:01:26.793Z,48.67
2019-05-10T09:03:55.611Z,48.61
2019-05-10T09:06:22.599Z,48.51
2019-05-10T09:09:01.831Z,48.42
2019-05-10T09:11:26.904Z,48.27
2019-05-10T09:13:58.368Z,48.08
2019-05-10T09:16:39.355Z,47.88
2019-05-10T09:19:02.744Z,47.73
2019-05-10T09:21:34.515Z,47.64
2019-05-10T09:24:06.576Z,47.44
2019-05-10T09:26:38.077Z,47.31
2019-05-10T09:29:09.349Z,47.24
2019-05-10T09:31:45.894Z,47.10
2019-05-10T09:34:13.539Z,47.09
2019-05-10T09:36:46.970Z,46.94
2019-05-10T09:39:21.771Z,46.99
2019-05-10T09:41:52.758Z,47.01
2019-05-10T09:44:23.767Z,47.08
2019-05-10T09:46:55.060Z,47.00
2019-05-10T09:49:27.444Z,47.00
2019-05-10T09:51:58.727Z,47.05
2019-05-10T09:54:33.544Z,47.09
2019-05-10T09:57:03.077Z,47.10
2019-05-10T09:59:34.328Z,47.16
2019-05-10T10:02:14.660Z,47.10
2019-05-10T10:04:38.688Z,47.03
2019-05-10T10:07:09.981Z,46.95
2019-05-10T10:09:44.667Z,46.78
2019-05-10T10:12:14.316Z,46.71
2019-05-10T10:14:47.297Z,46.72
2019-05-10T10:17:20.594Z,46.71
2019-05-10T10:19:51.724Z,46.67
2019-05-10T10:22:22.990Z,46.72
2019-05-10T10:24:56.833Z,46.77
2019-05-10T10:27:34.225Z,46.81
2019-05-10T10:30:00.165Z,46.91
2019-05-10T10:32:34.821Z,46.99
2019-05-10T10:35:04.597Z,47.06
2019-05-10T10:37:37.955Z,47.07
2019-05-10T10:40:09.183Z,47.13
2019-05-10T10:42:40.519Z,47.17
2019-05-10T10:45:12.016Z,47.22
2019-05-10T10:47:43.584Z,47.16
2019-05-10T10:50:17.208Z,47.05
2019-05-10T10:52:48.736Z,46.98
2019-05-10T10:55:19.998Z,46.84
2019-05-10T10:57:51.313Z,46.75
2019-05-10T11:00:33.012Z,46.64
2019-05-10T11:03:05.770Z,46.68
2019-05-10T11:05:37.080Z,46.60
2019-05-10T11:08:10.994Z,46.59
2019-05-10T11:10:43.019Z,46.55
2019-05-10T11:13:23.729Z,46.57
2019-05-10T11:15:48.419Z,46.58
2019-05-10T11:18:21.648Z,46.63
2019-05-10T11:20:54.075Z,46.63
2019-05-10T11:23:34.211Z,46.66
2019-05-10T11:25:58.514Z,46.89
2019-05-10T11:28:38.481Z,46.98
2019-05-10T11:31:02.962Z,46.95
2019-05-10T11:33:34.179Z,46.97
2019-05-10T11:36:08.681Z,46.83
2019-05-10T11:38:38.466Z,46.87
2019-05-10T11:41:13.617Z,46.76
2019-05-10T11:43:42.724Z,46.63
2019-05-10T11:46:14.052Z,46.50
2019-05-10T11:48:45.291Z,46.32
2019-05-10T11:51:17.606Z,46.27
2019-05-10T11:53:55.498Z,45.99
2019-05-10T11:56:27.376Z,45.90
2019-05-10T11:58:56.046Z,45.97
2019-05-10T12:01:27.295Z,45.93
2019-05-10T12:03:58.662Z,45.73
2019-05-10T12:06:31.987Z,45.65
2019-05-10T12:09:04.736Z,45.65
2019-05-10T12:11:43.822Z,45.65
2019-05-10T12:14:13.601Z,45.56
2019-05-10T12:16:42.348Z,45.49
2019-05-10T12:19:19.943Z,45.39
2019-05-10T12:21:46.675Z,45.28
2019-05-10T12:24:39.027Z,45.32
2019-05-10T12:27:14.424Z,45.27
2019-05-10T12:29:24.070Z,45.61
2019-05-10T12:31:56.975Z,45.84
2019-05-10T12:34:30.979Z,46.13
2019-05-10T12:37:03.777Z,46.38
2019-05-10T12:39:34.519Z,46.54
2019-05-10T12:42:05.815Z,46.52
2019-05-10T12:44:38.889Z,46.60
2019-05-10T12:47:11.392Z,46.62
2019-05-10T12:49:42.708Z,46.52
2019-05-10T12:52:16.081Z,46.44
2019-05-10T12:54:46.968Z,46.38
2019-05-10T12:57:18.259Z,46.27
2019-05-10T12:59:49.585Z,46.22
2019-05-10T13:02:20.913Z,46.03
2019-05-10T13:04:52.872Z,45.83
2019-05-10T13:07:25.211Z,45.72
2019-05-10T13:10:03.864Z,45.66
2019-05-10T13:12:29.516Z,45.59
2019-05-10T13:15:00.795Z,45.42
2019-05-10T13:17:32.099Z,45.10
2019-05-10T13:20:03.516Z,44.91
2019-05-10T13:22:37.783Z,44.65
2019-05-10T13:25:07.879Z,44.15
2019-05-10T13:27:40.298Z,43.71
2019-05-10T13:30:12.752Z,43.47
2019-05-10T13:32:44.078Z,43.20
2019-05-10T13:35:16.387Z,43.07
2019-05-10T13:37:47.794Z,42.74
2019-05-10T13:40:19.257Z,42.49
2019-05-10T13:42:50.532Z,42.29
2019-05-10T13:45:21.994Z,41.81
2019-05-10T13:47:53.286Z,41.58
2019-05-10T13:50:24.609Z,41.40
2019-05-10T13:52:55.961Z,41.14
2019-05-10T13:55:27.261Z,40.66
2019-05-10T13:57:58.581Z,40.63
2019-05-10T14:00:34.407Z,40.46
2019-05-10T14:03:04.832Z,39.97
2019-05-10T14:05:39.785Z,39.88
2019-05-10T14:08:09.627Z,39.76
2019-05-10T14:10:40.926Z,39.47
2019-05-10T14:13:16.224Z,39.24
2019-05-10T14:15:45.156Z,38.84
2019-05-10T14:18:16.404Z,38.74
2019-05-10T14:20:47.743Z,38.71
2019-05-10T14:23:18.995Z,38.69
2019-05-10T14:25:50.301Z,38.74
2019-05-10T14:28:22.579Z,38.77
2019-05-10T14:30:57.414Z,38.87
2019-05-10T14:33:26.837Z,38.97
2019-05-10T14:36:00.887Z,39.12
2019-05-10T14:38:31.130Z,39.24
2019-05-10T14:41:10.209Z,39.29
2019-05-10T14:43:35.494Z,39.19
2019-05-10T14:46:13.558Z,39.17
2019-05-10T14:48:39.801Z,39.10
2019-05-10T14:51:13.615Z,38.67
2019-05-10T14:53:44.110Z,38.19
2019-05-10T14:56:15.461Z,37.50
2019-05-10T14:58:46.773Z,36.79
2019-05-10T15:01:18.180Z,36.68
2019-05-10T15:03:49.633Z,36.71
2019-05-10T15:06:20.871Z,36.53
2019-05-10T15:08:52.311Z,36.15
2019-05-10T15:11:26.529Z,36.22
2019-05-10T15:13:57.261Z,36.14
2019-05-10T15:16:30.862Z,35.53
2019-05-10T15:19:02.405Z,34.81
2019-05-10T15:21:34.632Z,34.56
2019-05-10T15:24:06.256Z,34.51
2019-05-10T15:26:43.735Z,34.83
2019-05-10T15:29:14.870Z,35.16
2019-05-10T15:31:43.549Z,35.78
2019-05-10T15:34:14.853Z,36.23
2019-05-10T15:36:46.216Z,36.70
2019-05-10T15:39:17.519Z,37.13
2019-05-10T15:41:53.506Z,37.65
2019-05-10T15:44:30.155Z,37.92
2019-05-10T15:46:55.809Z,38.22
2019-05-10T15:49:27.118Z,38.61
2019-05-10T15:52:16.291Z,38.99
2019-05-10T15:54:31.471Z,39.26
2019-05-10T15:57:02.810Z,39.44
2019-05-10T15:59:34.125Z,39.62
2019-05-10T16:02:05.640Z,39.71
2019-05-10T16:04:36.926Z,39.78
2019-05-10T16:07:09.256Z,39.87
2019-05-10T16:09:41.540Z,39.83
2019-05-10T16:12:13.127Z,39.82
2019-05-10T16:14:45.756Z,39.70
2019-05-10T16:17:23.351Z,39.66
2019-05-10T16:19:59.707Z,39.60
2019-05-10T16:22:30.335Z,39.50
2019-05-10T16:25:01.355Z,39.55
2019-05-10T16:27:33.858Z,39.58
2019-05-10T16:30:05.106Z,39.59
2019-05-10T16:32:36.456Z,39.67
2019-05-10T16:35:12.793Z,39.77
2019-05-10T16:37:40.811Z,39.94
2019-05-10T16:40:13.609Z,40.05
2019-05-10T16:42:47.873Z,40.13
2019-05-10T16:45:19.429Z,40.19
2019-05-10T16:47:50.775Z,40.21
2019-05-10T16:50:26.117Z,40.26
2019-05-10T16:52:59.443Z,40.36
2019-05-10T16:55:28.087Z,40.48
2019-05-10T16:57:59.356Z,40.54
2019-05-10T17:00:30.640Z,40.56
2019-05-10T17:03:01.904Z,40.48
2019-05-10T17:05:33.309Z,40.58
2019-05-10T17:08:04.564Z,40.69
2019-05-10T17:10:35.980Z,40.81
2019-05-10T17:13:07.408Z,40.83
2019-05-10T17:15:41.693Z,40.80
2019-05-10T17:18:17.802Z,40.81
2019-05-10T17:20:50.856Z,40.88
2019-05-10T17:23:18.948Z,40.97
2019-05-10T17:25:50.226Z,41.04
2019-05-10T17:28:21.561Z,41.13
2019-05-10T17:30:52.798Z,41.12
2019-05-10T17:33:24.210Z,41.13
2019-05-10T17:36:07.572Z,41.12
2019-05-10T17:38:31.619Z,41.08
2019-05-10T17:41:02.550Z,41.08
2019-05-10T17:43:33.891Z,41.10
2019-05-10T17:46:05.377Z,41.08
2019-05-10T17:48:40.869Z,41.03
2019-05-10T17:51:09.754Z,41.08
2019-05-10T17:53:41.009Z,41.16
2019-05-10T17:56:12.470Z,41.24
2019-05-10T17:58:43.854Z,41.25
2019-05-10T18:01:15.177Z,41.28
2019-05-10T18:03:46.491Z,41.29
2019-05-10T18:06:23.953Z,41.33
2019-05-10T18:08:50.864Z,41.35
2019-05-10T18:11:22.224Z,41.35
2019-05-10T18:13:53.649Z,41.40
2019-05-10T18:16:25.629Z,41.40
2019-05-10T18:18:56.968Z,41.39
2019-05-10T18:21:28.378Z,41.41
2019-05-10T18:23:59.860Z,41.42
2019-05-10T18:26:34.096Z,41.45
2019-05-10T18:29:04.172Z,41.48
2019-05-10T18:31:35.533Z,41.49
2019-05-10T18:34:06.855Z,41.50
2019-05-10T18:36:50.936Z,41.53
2019-05-10T18:39:15.535Z,41.53
2019-05-10T18:41:46.504Z,41.54
2019-05-10T18:44:17.158Z,41.58
2019-05-10T18:46:48.408Z,41.57
2019-05-10T18:49:19.727Z,41.62
2019-05-10T18:51:50.975Z,41.68
2019-05-10T18:54:22.314Z,41.70
2019-05-10T18:56:53.625Z,41.73
2019-05-10T18:59:24.897Z,41.77
2019-05-10T19:01:56.153Z,41.86
2019-05-10T19:04:27.473Z,41.91
2019-05-10T19:07:09.244Z,42.00
2019-05-10T19:09:32.017Z,42.09
2019-05-10T19:12:03.530Z,42.20
2019-05-10T19:14:35.139Z,42.32
2019-05-10T19:17:09.429Z,42.51
2019-05-10T19:19:42.163Z,43.03
2019-05-10T19:22:12.550Z,43.25
2019-05-10T19:24:43.955Z,43.97
2019-05-10T19:27:15.315Z,44.32
2019-05-10T19:29:48.024Z,44.83
2019-05-10T19:32:20.296Z,45.01
2019-05-10T19:34:57.325Z,45.28
2019-05-10T19:37:31.368Z,45.37
2019-05-10T19:39:57.851Z,45.66
2019-05-10T19:42:31.611Z,45.79
2019-05-10T19:45:02.177Z,45.86
2019-05-10T19:47:34.772Z,46.04
2019-05-10T19:50:06.441Z,46.29
2019-05-10T19:52:37.748Z,46.38
2019-05-10T19:55:13.203Z,46.47
2019-05-10T19:57:42.499Z,46.62
2019-05-10T20:00:13.788Z,46.69
2019-05-10T20:02:45.087Z,46.98
2019-05-10T20:05:16.424Z,47.08
2019-05-10T20:07:47.834Z,47.41
2019-05-10T20:10:19.193Z,47.46
2019-05-10T20:12:50.509Z,47.60
2019-05-10T20:15:21.805Z,47.68
2019-05-10T20:17:53.152Z,47.82
2019-05-10T20:20:24.502Z,47.83
2019-05-10T20:22:55.877Z,47.85
2019-05-10T20:25:27.303Z,47.96
2019-05-10T20:27:58.800Z,47.96
2019-05-10T20:30:30.241Z,48.09
2019-05-10T20:33:01.578Z,48.09
2019-05-10T20:35:33.015Z,48.20
2019-05-10T20:38:04.480Z,48.21
2019-05-10T20:40:37.297Z,48.19
2019-05-10T20:43:08.789Z,48.23
2019-05-10T20:45:40.091Z,48.27
2019-05-10T20:48:11.334Z,48.37
2019-05-10T20:50:42.746Z,48.34
2019-05-10T20:53:14.089Z,48.39
2019-05-10T20:55:45.413Z,48.42
2019-05-10T20:58:16.787Z,48.40
2019-05-10T21:00:48.169Z,48.43
2019-05-10T21:03:19.489Z,48.43
2019-05-10T21:05:50.773Z,48.44
2019-05-10T21:08:22.044Z,48.45
2019-05-10T21:10:53.393Z,48.47
2019-05-10T21:13:24.769Z,48.47
2019-05-10T21:15:56.057Z,48.51
2019-05-10T21:18:27.492Z,48.54
2019-05-10T21:20:58.769Z,48.54
2019-05-10T21:23:30.036Z,48.57
2019-05-10T21:26:01.350Z,48.60
2019-05-10T21:28:33.018Z,48.67
2019-05-10T21:31:04.365Z,48.72
2019-05-10T21:33:35.684Z,48.78
2019-05-10T21:36:06.994Z,48.84
2019-05-10T21:38:41.476Z,48.90
2019-05-10T21:41:11.313Z,48.95
2019-05-10T21:43:42.567Z,48.99
2019-05-10T21:46:13.911Z,49.01
2019-05-10T21:48:45.182Z,49.06
2019-05-10T21:51:16.464Z,49.09
2019-05-10T21:53:47.730Z,49.10
2019-05-10T21:56:19.033Z,49.17
2019-05-10T21:58:50.332Z,49.20
2019-05-10T22:01:21.695Z,49.24
2019-05-10T22:03:52.977Z,49.27
2019-05-10T22:06:24.252Z,49.29
2019-05-10T22:08:55.531Z,49.24
2019-05-10T22:11:26.840Z,49.28
2019-05-10T22:13:59.238Z,49.29
2019-05-10T22:16:30.548Z,49.32
2019-05-10T22:19:03.117Z,49.34
2019-05-10T22:21:34.420Z,49.33
2019-05-10T22:24:05.844Z,49.33
2019-05-10T22:26:37.186Z,49.44
2019-05-10T22:29:08.438Z,49.53
2019-05-10T22:31:39.759Z,49.73
2019-05-10T22:34:12.016Z,49.85
2019-05-10T22:36:43.378Z,49.92
2019-05-10T22:39:14.678Z,50.00
2019-05-10T22:41:45.908Z,50.09
2019-05-10T22:44:17.227Z,50.17
2019-05-10T22:46:48.454Z,50.27
2019-05-10T22:49:19.752Z,50.43
2019-05-10T22:51:51.144Z,50.54
2019-05-10T22:54:22.449Z,50.67
2019-05-10T22:56:53.715Z,50.77
2019-05-10T22:59:25.080Z,50.84
2019-05-10T23:01:56.444Z,50.94
2019-05-10T23:04:27.696Z,51.02
2019-05-10T23:06:58.930Z,51.06
2019-05-10T23:09:30.229Z,51.14
2019-05-10T23:12:01.540Z,51.14
2019-05-10T23:14:32.771Z,51.18
2019-05-10T23:17:04.130Z,51.24
2019-05-10T23:19:35.357Z,51.27
2019-05-10T23:22:06.628Z,51.34
2019-05-10T23:24:39.323Z,51.39
2019-05-10T23:27:10.630Z,51.44
2019-05-10T23:29:41.984Z,51.46
2019-05-10T23:32:13.254Z,51.51
2019-05-10T23:34:44.566Z,51.55
2019-05-10T23:37:15.858Z,51.61
2019-05-10T23:39:47.100Z,51.71
2019-05-10T23:42:18.383Z,51.77
2019-05-10T23:44:49.706Z,51.86
2019-05-10T23:47:20.974Z,51.93
2019-05-10T23:49:52.262Z,51.99
2019-05-10T23:52:23.634Z,52.04
2019-05-10T23:54:54.866Z,52.10
2019-05-10T23:57:26.107Z,52.17
2019-05-10T23:59:57.465Z,52.23
